sensor_id;sensor_type;location;lat;lon;timestamp;temperature;humidity
20672;DHT22;10495;50.922;4.760;2023-12-14T00:01:40;10.80;93.90
20672;DHT22;10495;50.922;4.760;2023-12-14T00:04:07;10.80;93.80
20672;DHT22;10495;50.922;4.760;2023-12-14T00:06:33;10.80;93.90
20672;DHT22;10495;50.922;4.760;2023-12-14T00:08:58;10.90;93.90
20672;DHT22;10495;50.922;4.760;2023-12-14T00:11:24;10.90;93.90
20672;DHT22;10495;50.922;4.760;2023-12-14T00:13:50;11.00;93.80
20672;DHT22;10495;50.922;4.760;2023-12-14T00:16:15;10.90;93.80
20672;DHT22;10495;50.922;4.760;2023-12-14T00:18:41;10.90;93.90
20672;DHT22;10495;50.922;4.760;2023-12-14T00:21:07;10.90;93.90
20672;DHT22;10495;50.922;4.760;2023-12-14T00:23:33;10.80;94.00
20672;DHT22;10495;50.922;4.760;2023-12-14T00:25:59;10.80;94.00
20672;DHT22;10495;50.922;4.760;2023-12-14T00:28:25;10.80;94.20
20672;DHT22;10495;50.922;4.760;2023-12-14T00:30:51;10.80;94.20
20672;DHT22;10495;50.922;4.760;2023-12-14T00:33:16;10.80;94.20
20672;DHT22;10495;50.922;4.760;2023-12-14T00:35:42;10.80;94.20
20672;DHT22;10495;50.922;4.760;2023-12-14T00:38:07;10.80;94.20
20672;DHT22;10495;50.922;4.760;2023-12-14T00:40:33;10.80;94.30
20672;DHT22;10495;50.922;4.760;2023-12-14T00:42:59;10.70;94.50
20672;DHT22;10495;50.922;4.760;2023-12-14T00:45:24;10.80;94.30
20672;DHT22;10495;50.922;4.760;2023-12-14T00:47:50;10.80;94.20
20672;DHT22;10495;50.922;4.760;2023-12-14T00:50:15;10.80;94.30
20672;DHT22;10495;50.922;4.760;2023-12-14T00:52:41;10.80;94.40
20672;DHT22;10495;50.922;4.760;2023-12-14T00:55:07;10.70;94.40
20672;DHT22;10495;50.922;4.760;2023-12-14T00:57:32;10.70;94.50
20672;DHT22;10495;50.922;4.760;2023-12-14T00:59:58;10.80;94.40
20672;DHT22;10495;50.922;4.760;2023-12-14T01:02:23;10.80;94.40
20672;DHT22;10495;50.922;4.760;2023-12-14T01:04:49;10.70;94.60
20672;DHT22;10495;50.922;4.760;2023-12-14T01:07:15;10.90;94.30
20672;DHT22;10495;50.922;4.760;2023-12-14T01:09:40;10.90;94.20
20672;DHT22;10495;50.922;4.760;2023-12-14T01:12:06;10.80;94.20
20672;DHT22;10495;50.922;4.760;2023-12-14T01:14:32;10.60;94.50
20672;DHT22;10495;50.922;4.760;2023-12-14T01:16:57;10.70;94.40
20672;DHT22;10495;50.922;4.760;2023-12-14T01:19:23;10.60;94.60
20672;DHT22;10495;50.922;4.760;2023-12-14T01:21:50;10.70;94.50
20672;DHT22;10495;50.922;4.760;2023-12-14T01:24:16;10.80;94.30
20672;DHT22;10495;50.922;4.760;2023-12-14T01:26:42;10.90;94.10
20672;DHT22;10495;50.922;4.760;2023-12-14T01:29:07;10.70;94.20
20672;DHT22;10495;50.922;4.760;2023-12-14T01:31:33;10.70;94.30
20672;DHT22;10495;50.922;4.760;2023-12-14T01:33:59;10.70;94.10
20672;DHT22;10495;50.922;4.760;2023-12-14T01:36:26;10.40;94.40
20672;DHT22;10495;50.922;4.760;2023-12-14T01:38:52;10.30;94.70
20672;DHT22;10495;50.922;4.760;2023-12-14T01:41:18;10.10;94.80
20672;DHT22;10495;50.922;4.760;2023-12-14T01:43:45;9.90;95.20
20672;DHT22;10495;50.922;4.760;2023-12-14T01:46:10;9.70;95.40
20672;DHT22;10495;50.922;4.760;2023-12-14T01:48:36;9.80;95.40
20672;DHT22;10495;50.922;4.760;2023-12-14T01:51:02;9.60;95.30
20672;DHT22;10495;50.922;4.760;2023-12-14T01:53:28;9.50;95.50
20672;DHT22;10495;50.922;4.760;2023-12-14T01:55:54;9.50;95.50
20672;DHT22;10495;50.922;4.760;2023-12-14T01:58:20;9.50;95.70
20672;DHT22;10495;50.922;4.760;2023-12-14T02:03:31;9.50;95.60
20672;DHT22;10495;50.922;4.760;2023-12-14T02:05:56;9.40;95.40
20672;DHT22;10495;50.922;4.760;2023-12-14T02:08:24;9.30;95.50
20672;DHT22;10495;50.922;4.760;2023-12-14T02:10:49;9.30;95.30
20672;DHT22;10495;50.922;4.760;2023-12-14T02:13:15;9.20;95.60
20672;DHT22;10495;50.922;4.760;2023-12-14T02:15:41;9.10;95.70
20672;DHT22;10495;50.922;4.760;2023-12-14T02:18:07;9.20;95.90
20672;DHT22;10495;50.922;4.760;2023-12-14T02:20:33;9.40;95.60
20672;DHT22;10495;50.922;4.760;2023-12-14T02:22:58;9.50;95.00
20672;DHT22;10495;50.922;4.760;2023-12-14T02:25:24;9.30;95.20
20672;DHT22;10495;50.922;4.760;2023-12-14T02:27:51;9.40;95.40
20672;DHT22;10495;50.922;4.760;2023-12-14T02:30:17;9.30;95.40
20672;DHT22;10495;50.922;4.760;2023-12-14T02:32:43;9.20;95.50
20672;DHT22;10495;50.922;4.760;2023-12-14T02:35:09;9.30;95.10
20672;DHT22;10495;50.922;4.760;2023-12-14T02:37:36;9.10;95.20
20672;DHT22;10495;50.922;4.760;2023-12-14T02:40:10;9.20;95.30
20672;DHT22;10495;50.922;4.760;2023-12-14T02:42:36;9.00;95.20
20672;DHT22;10495;50.922;4.760;2023-12-14T02:45:02;8.90;95.40
20672;DHT22;10495;50.922;4.760;2023-12-14T02:47:29;8.80;95.60
20672;DHT22;10495;50.922;4.760;2023-12-14T02:49:55;8.90;95.60
20672;DHT22;10495;50.922;4.760;2023-12-14T02:52:21;9.10;95.00
20672;DHT22;10495;50.922;4.760;2023-12-14T02:54:47;8.90;95.10
20672;DHT22;10495;50.922;4.760;2023-12-14T02:57:13;8.90;94.90
20672;DHT22;10495;50.922;4.760;2023-12-14T02:59:39;8.90;95.00
20672;DHT22;10495;50.922;4.760;2023-12-14T03:02:05;9.00;94.70
20672;DHT22;10495;50.922;4.760;2023-12-14T03:04:31;8.80;94.70
20672;DHT22;10495;50.922;4.760;2023-12-14T03:06:56;8.80;94.60
20672;DHT22;10495;50.922;4.760;2023-12-14T03:09:22;8.80;94.90
20672;DHT22;10495;50.922;4.760;2023-12-14T03:11:49;8.70;94.60
20672;DHT22;10495;50.922;4.760;2023-12-14T03:14:14;8.70;94.90
20672;DHT22;10495;50.922;4.760;2023-12-14T03:16:40;8.80;94.90
20672;DHT22;10495;50.922;4.760;2023-12-14T03:19:06;8.80;94.60
20672;DHT22;10495;50.922;4.760;2023-12-14T03:21:31;8.80;94.50
20672;DHT22;10495;50.922;4.760;2023-12-14T03:23:57;8.70;94.50
20672;DHT22;10495;50.922;4.760;2023-12-14T03:26:22;8.80;94.60
20672;DHT22;10495;50.922;4.760;2023-12-14T03:28:48;8.80;94.20
20672;DHT22;10495;50.922;4.760;2023-12-14T03:31:14;8.70;94.30
20672;DHT22;10495;50.922;4.760;2023-12-14T03:33:40;8.70;94.50
20672;DHT22;10495;50.922;4.760;2023-12-14T03:36:06;8.50;94.30
20672;DHT22;10495;50.922;4.760;2023-12-14T03:38:33;8.60;94.70
20672;DHT22;10495;50.922;4.760;2023-12-14T03:40:58;8.60;94.60
20672;DHT22;10495;50.922;4.760;2023-12-14T03:43:24;8.80;94.50
20672;DHT22;10495;50.922;4.760;2023-12-14T03:45:50;8.80;94.30
20672;DHT22;10495;50.922;4.760;2023-12-14T03:48:15;8.90;93.70
20672;DHT22;10495;50.922;4.760;2023-12-14T03:50:41;8.80;93.70
20672;DHT22;10495;50.922;4.760;2023-12-14T03:53:07;8.80;93.70
20672;DHT22;10495;50.922;4.760;2023-12-14T03:55:33;8.60;93.50
20672;DHT22;10495;50.922;4.760;2023-12-14T03:57:58;8.60;93.80
20672;DHT22;10495;50.922;4.760;2023-12-14T04:00:24;8.70;93.60
20672;DHT22;10495;50.922;4.760;2023-12-14T04:02:49;8.80;93.70
20672;DHT22;10495;50.922;4.760;2023-12-14T04:05:15;8.70;93.40
20672;DHT22;10495;50.922;4.760;2023-12-14T04:07:41;8.50;93.90
20672;DHT22;10495;50.922;4.760;2023-12-14T04:10:10;8.30;93.90
20672;DHT22;10495;50.922;4.760;2023-12-14T04:12:37;8.30;93.80
20672;DHT22;10495;50.922;4.760;2023-12-14T04:15:04;8.20;93.90
20672;DHT22;10495;50.922;4.760;2023-12-14T04:17:30;8.20;93.70
20672;DHT22;10495;50.922;4.760;2023-12-14T04:19:56;8.10;93.80
20672;DHT22;10495;50.922;4.760;2023-12-14T04:22:22;8.00;93.90
20672;DHT22;10495;50.922;4.760;2023-12-14T04:24:48;8.00;94.10
20672;DHT22;10495;50.922;4.760;2023-12-14T04:27:14;8.10;93.90
20672;DHT22;10495;50.922;4.760;2023-12-14T04:29:40;8.20;93.70
20672;DHT22;10495;50.922;4.760;2023-12-14T04:32:06;8.20;93.50
20672;DHT22;10495;50.922;4.760;2023-12-14T04:34:31;8.20;93.60
20672;DHT22;10495;50.922;4.760;2023-12-14T04:36:57;8.20;93.50
20672;DHT22;10495;50.922;4.760;2023-12-14T04:39:26;8.30;93.30
20672;DHT22;10495;50.922;4.760;2023-12-14T04:41:53;8.20;93.00
20672;DHT22;10495;50.922;4.760;2023-12-14T04:44:19;8.20;93.20
20672;DHT22;10495;50.922;4.760;2023-12-14T04:46:45;8.00;93.40
20672;DHT22;10495;50.922;4.760;2023-12-14T04:49:10;7.90;93.60
20672;DHT22;10495;50.922;4.760;2023-12-14T04:51:36;8.10;93.60
20672;DHT22;10495;50.922;4.760;2023-12-14T04:54:03;7.90;93.70
20672;DHT22;10495;50.922;4.760;2023-12-14T04:56:29;7.90;93.80
20672;DHT22;10495;50.922;4.760;2023-12-14T04:58:54;8.10;93.40
20672;DHT22;10495;50.922;4.760;2023-12-14T05:01:20;8.20;93.30
20672;DHT22;10495;50.922;4.760;2023-12-14T05:03:46;8.20;93.10
20672;DHT22;10495;50.922;4.760;2023-12-14T05:06:11;8.20;93.20
20672;DHT22;10495;50.922;4.760;2023-12-14T05:08:37;8.20;93.00
20672;DHT22;10495;50.922;4.760;2023-12-14T05:11:03;8.40;92.90
20672;DHT22;10495;50.922;4.760;2023-12-14T05:13:29;8.50;92.70
20672;DHT22;10495;50.922;4.760;2023-12-14T05:15:55;8.30;92.60
20672;DHT22;10495;50.922;4.760;2023-12-14T05:18:20;8.20;92.60
20672;DHT22;10495;50.922;4.760;2023-12-14T05:20:46;8.30;92.90
20672;DHT22;10495;50.922;4.760;2023-12-14T05:23:12;8.30;92.70
20672;DHT22;10495;50.922;4.760;2023-12-14T05:25:38;8.50;92.30
20672;DHT22;10495;50.922;4.760;2023-12-14T05:28:04;8.30;92.60
20672;DHT22;10495;50.922;4.760;2023-12-14T05:30:29;8.20;92.80
20672;DHT22;10495;50.922;4.760;2023-12-14T05:32:55;8.00;93.20
20672;DHT22;10495;50.922;4.760;2023-12-14T05:35:21;8.20;92.90
20672;DHT22;10495;50.922;4.760;2023-12-14T05:37:47;8.00;93.00
20672;DHT22;10495;50.922;4.760;2023-12-14T05:40:13;8.30;92.60
20672;DHT22;10495;50.922;4.760;2023-12-14T05:42:39;8.40;92.50
20672;DHT22;10495;50.922;4.760;2023-12-14T05:45:05;8.50;92.30
20672;DHT22;10495;50.922;4.760;2023-12-14T05:47:32;8.40;92.20
20672;DHT22;10495;50.922;4.760;2023-12-14T05:49:58;8.40;92.50
20672;DHT22;10495;50.922;4.760;2023-12-14T05:52:24;8.40;92.30
20672;DHT22;10495;50.922;4.760;2023-12-14T05:54:50;8.30;92.10
20672;DHT22;10495;50.922;4.760;2023-12-14T05:57:16;8.10;92.50
20672;DHT22;10495;50.922;4.760;2023-12-14T05:59:41;8.00;92.80
20672;DHT22;10495;50.922;4.760;2023-12-14T06:02:07;8.00;92.70
20672;DHT22;10495;50.922;4.760;2023-12-14T06:04:33;8.10;92.70
20672;DHT22;10495;50.922;4.760;2023-12-14T06:06:59;8.10;92.60
20672;DHT22;10495;50.922;4.760;2023-12-14T06:09:25;8.10;92.40
20672;DHT22;10495;50.922;4.760;2023-12-14T06:12:02;8.20;92.40
20672;DHT22;10495;50.922;4.760;2023-12-14T06:14:28;8.20;92.20
20672;DHT22;10495;50.922;4.760;2023-12-14T06:16:54;8.20;92.10
20672;DHT22;10495;50.922;4.760;2023-12-14T06:19:19;8.10;92.10
20672;DHT22;10495;50.922;4.760;2023-12-14T06:21:45;8.20;92.30
20672;DHT22;10495;50.922;4.760;2023-12-14T06:24:11;8.20;92.10
20672;DHT22;10495;50.922;4.760;2023-12-14T06:26:45;8.20;92.10
20672;DHT22;10495;50.922;4.760;2023-12-14T06:29:11;8.10;92.10
20672;DHT22;10495;50.922;4.760;2023-12-14T06:31:38;8.00;92.40
20672;DHT22;10495;50.922;4.760;2023-12-14T06:34:04;8.00;92.50
20672;DHT22;10495;50.922;4.760;2023-12-14T06:36:30;7.90;92.40
20672;DHT22;10495;50.922;4.760;2023-12-14T06:38:59;7.90;92.70
20672;DHT22;10495;50.922;4.760;2023-12-14T06:41:26;7.80;92.80
20672;DHT22;10495;50.922;4.760;2023-12-14T06:43:52;8.00;92.90
20672;DHT22;10495;50.922;4.760;2023-12-14T06:46:18;8.00;92.50
20672;DHT22;10495;50.922;4.760;2023-12-14T06:48:44;7.90;92.60
20672;DHT22;10495;50.922;4.760;2023-12-14T06:51:10;7.80;92.80
20672;DHT22;10495;50.922;4.760;2023-12-14T06:53:35;8.00;92.70
20672;DHT22;10495;50.922;4.760;2023-12-14T06:56:04;8.10;92.80
20672;DHT22;10495;50.922;4.760;2023-12-14T06:58:30;8.10;92.70
20672;DHT22;10495;50.922;4.760;2023-12-14T07:00:57;8.20;92.60
20672;DHT22;10495;50.922;4.760;2023-12-14T07:03:22;8.20;92.90
20672;DHT22;10495;50.922;4.760;2023-12-14T07:05:48;8.20;92.90
20672;DHT22;10495;50.922;4.760;2023-12-14T07:08:13;8.20;92.80
20672;DHT22;10495;50.922;4.760;2023-12-14T07:10:41;8.20;92.90
20672;DHT22;10495;50.922;4.760;2023-12-14T07:13:07;8.10;93.10
20672;DHT22;10495;50.922;4.760;2023-12-14T07:15:33;8.20;93.10
20672;DHT22;10495;50.922;4.760;2023-12-14T07:17:59;8.20;93.10
20672;DHT22;10495;50.922;4.760;2023-12-14T07:20:25;8.20;93.10
20672;DHT22;10495;50.922;4.760;2023-12-14T07:22:50;8.40;93.00
20672;DHT22;10495;50.922;4.760;2023-12-14T07:25:16;8.40;92.90
20672;DHT22;10495;50.922;4.760;2023-12-14T07:27:42;8.40;92.80
20672;DHT22;10495;50.922;4.760;2023-12-14T07:30:09;8.30;92.80
20672;DHT22;10495;50.922;4.760;2023-12-14T07:32:35;8.20;93.00
20672;DHT22;10495;50.922;4.760;2023-12-14T07:35:00;8.30;92.80
20672;DHT22;10495;50.922;4.760;2023-12-14T07:37:26;8.20;92.80
20672;DHT22;10495;50.922;4.760;2023-12-14T07:39:52;8.10;93.20
20672;DHT22;10495;50.922;4.760;2023-12-14T07:42:18;8.10;93.20
20672;DHT22;10495;50.922;4.760;2023-12-14T07:44:46;8.30;93.10
20672;DHT22;10495;50.922;4.760;2023-12-14T07:47:11;8.30;92.70
20672;DHT22;10495;50.922;4.760;2023-12-14T07:49:37;8.30;92.70
20672;DHT22;10495;50.922;4.760;2023-12-14T07:52:03;8.20;92.60
20672;DHT22;10495;50.922;4.760;2023-12-14T07:54:29;8.20;92.70
20672;DHT22;10495;50.922;4.760;2023-12-14T07:56:54;8.20;92.50
20672;DHT22;10495;50.922;4.760;2023-12-14T07:59:20;8.20;92.50
20672;DHT22;10495;50.922;4.760;2023-12-14T08:01:46;8.20;92.40
20672;DHT22;10495;50.922;4.760;2023-12-14T08:04:12;8.20;92.40
20672;DHT22;10495;50.922;4.760;2023-12-14T08:06:38;8.20;92.20
20672;DHT22;10495;50.922;4.760;2023-12-14T08:09:06;8.10;92.20
20672;DHT22;10495;50.922;4.760;2023-12-14T08:11:33;8.10;92.30
20672;DHT22;10495;50.922;4.760;2023-12-14T08:13:58;8.00;92.10
20672;DHT22;10495;50.922;4.760;2023-12-14T08:16:24;8.00;92.20
20672;DHT22;10495;50.922;4.760;2023-12-14T08:18:50;8.00;92.30
20672;DHT22;10495;50.922;4.760;2023-12-14T08:21:17;7.90;92.30
20672;DHT22;10495;50.922;4.760;2023-12-14T08:23:43;7.90;92.40
20672;DHT22;10495;50.922;4.760;2023-12-14T08:26:09;7.90;92.60
20672;DHT22;10495;50.922;4.760;2023-12-14T08:28:36;8.00;92.60
20672;DHT22;10495;50.922;4.760;2023-12-14T08:31:02;8.10;92.50
20672;DHT22;10495;50.922;4.760;2023-12-14T08:33:30;8.10;92.60
20672;DHT22;10495;50.922;4.760;2023-12-14T08:35:56;8.10;92.50
20672;DHT22;10495;50.922;4.760;2023-12-14T08:38:22;8.10;92.50
20672;DHT22;10495;50.922;4.760;2023-12-14T08:40:48;8.10;92.50
20672;DHT22;10495;50.922;4.760;2023-12-14T08:43:13;8.20;92.60
20672;DHT22;10495;50.922;4.760;2023-12-14T08:45:39;8.20;92.60
20672;DHT22;10495;50.922;4.760;2023-12-14T08:48:05;8.50;92.40
20672;DHT22;10495;50.922;4.760;2023-12-14T08:50:31;8.60;92.40
20672;DHT22;10495;50.922;4.760;2023-12-14T08:52:57;8.90;92.20
20672;DHT22;10495;50.922;4.760;2023-12-14T08:55:27;9.00;91.90
20672;DHT22;10495;50.922;4.760;2023-12-14T08:57:53;9.30;91.70
20672;DHT22;10495;50.922;4.760;2023-12-14T09:00:19;9.50;91.40
20672;DHT22;10495;50.922;4.760;2023-12-14T09:02:45;9.70;91.30
20672;DHT22;10495;50.922;4.760;2023-12-14T09:05:14;9.90;91.10
20672;DHT22;10495;50.922;4.760;2023-12-14T09:07:40;10.20;90.80
20672;DHT22;10495;50.922;4.760;2023-12-14T09:10:06;10.50;90.60
20672;DHT22;10495;50.922;4.760;2023-12-14T09:12:35;10.60;90.30
20672;DHT22;10495;50.922;4.760;2023-12-14T09:15:02;10.80;90.00
20672;DHT22;10495;50.922;4.760;2023-12-14T09:17:28;10.90;89.40
20672;DHT22;10495;50.922;4.760;2023-12-14T09:20:00;11.10;88.60
20672;DHT22;10495;50.922;4.760;2023-12-14T09:22:26;11.40;87.50
20672;DHT22;10495;50.922;4.760;2023-12-14T09:24:52;11.50;84.50
20672;DHT22;10495;50.922;4.760;2023-12-14T09:27:18;11.40;85.10
20672;DHT22;10495;50.922;4.760;2023-12-14T09:29:44;10.90;83.70
20672;DHT22;10495;50.922;4.760;2023-12-14T09:32:09;10.70;84.70
20672;DHT22;10495;50.922;4.760;2023-12-14T09:34:35;10.10;85.90
20672;DHT22;10495;50.922;4.760;2023-12-14T09:37:01;9.90;86.60
20672;DHT22;10495;50.922;4.760;2023-12-14T09:39:26;9.70;87.20
20672;DHT22;10495;50.922;4.760;2023-12-14T09:42:03;9.30;86.60
20672;DHT22;10495;50.922;4.760;2023-12-14T09:44:30;9.20;87.00
20672;DHT22;10495;50.922;4.760;2023-12-14T09:46:59;8.90;87.70
20672;DHT22;10495;50.922;4.760;2023-12-14T09:49:26;9.00;88.80
20672;DHT22;10495;50.922;4.760;2023-12-14T09:51:57;8.90;88.20
20672;DHT22;10495;50.922;4.760;2023-12-14T09:54:24;8.90;88.90
20672;DHT22;10495;50.922;4.760;2023-12-14T09:56:50;9.00;88.60
20672;DHT22;10495;50.922;4.760;2023-12-14T09:59:16;9.10;88.30
20672;DHT22;10495;50.922;4.760;2023-12-14T10:01:42;9.10;87.30
20672;DHT22;10495;50.922;4.760;2023-12-14T10:06:34;9.20;87.00
20672;DHT22;10495;50.922;4.760;2023-12-14T10:09:00;9.10;85.60
20672;DHT22;10495;50.922;4.760;2023-12-14T10:11:27;9.00;86.10
20672;DHT22;10495;50.922;4.760;2023-12-14T10:13:55;9.00;86.50
20672;DHT22;10495;50.922;4.760;2023-12-14T10:16:34;9.00;87.00
20672;DHT22;10495;50.922;4.760;2023-12-14T10:19:00;8.80;86.00
20672;DHT22;10495;50.922;4.760;2023-12-14T10:21:26;8.60;85.90
20672;DHT22;10495;50.922;4.760;2023-12-14T10:23:55;8.50;86.90
20672;DHT22;10495;50.922;4.760;2023-12-14T10:26:25;8.60;86.10
20672;DHT22;10495;50.922;4.760;2023-12-14T10:28:51;8.50;86.30
20672;DHT22;10495;50.922;4.760;2023-12-14T10:31:18;8.80;86.10
20672;DHT22;10495;50.922;4.760;2023-12-14T10:33:45;8.80;85.80
20672;DHT22;10495;50.922;4.760;2023-12-14T10:36:15;8.80;86.20
20672;DHT22;10495;50.922;4.760;2023-12-14T10:38:43;8.70;85.90
20672;DHT22;10495;50.922;4.760;2023-12-14T10:41:12;8.60;86.20
20672;DHT22;10495;50.922;4.760;2023-12-14T10:43:39;8.60;87.00
20672;DHT22;10495;50.922;4.760;2023-12-14T10:46:07;8.60;87.00
20672;DHT22;10495;50.922;4.760;2023-12-14T10:48:37;8.80;87.30
20672;DHT22;10495;50.922;4.760;2023-12-14T10:51:06;8.90;86.90
20672;DHT22;10495;50.922;4.760;2023-12-14T10:53:34;9.10;86.70
20672;DHT22;10495;50.922;4.760;2023-12-14T10:56:04;9.20;86.60
20672;DHT22;10495;50.922;4.760;2023-12-14T10:58:55;9.30;84.40
20672;DHT22;10495;50.922;4.760;2023-12-14T11:01:23;9.30;85.70
20672;DHT22;10495;50.922;4.760;2023-12-14T11:03:56;9.30;85.90
20672;DHT22;10495;50.922;4.760;2023-12-14T11:06:36;9.40;86.50
20672;DHT22;10495;50.922;4.760;2023-12-14T11:09:07;9.50;85.30
20672;DHT22;10495;50.922;4.760;2023-12-14T11:14:23;9.50;85.10
20672;DHT22;10495;50.922;4.760;2023-12-14T11:16:53;9.60;84.80
20672;DHT22;10495;50.922;4.760;2023-12-14T11:24:29;9.70;86.40
20672;DHT22;10495;50.922;4.760;2023-12-14T11:26:55;9.70;86.30
20672;DHT22;10495;50.922;4.760;2023-12-14T11:29:21;9.70;86.70
20672;DHT22;10495;50.922;4.760;2023-12-14T11:31:47;9.80;86.80
20672;DHT22;10495;50.922;4.760;2023-12-14T11:34:15;9.90;86.10
20672;DHT22;10495;50.922;4.760;2023-12-14T11:36:41;10.00;84.80
20672;DHT22;10495;50.922;4.760;2023-12-14T11:39:10;10.00;85.40
20672;DHT22;10495;50.922;4.760;2023-12-14T11:41:36;10.00;85.30
20672;DHT22;10495;50.922;4.760;2023-12-14T11:44:04;9.90;85.70
20672;DHT22;10495;50.922;4.760;2023-12-14T11:46:30;9.90;86.30
20672;DHT22;10495;50.922;4.760;2023-12-14T11:48:56;10.00;86.80
20672;DHT22;10495;50.922;4.760;2023-12-14T11:51:22;9.90;86.50
20672;DHT22;10495;50.922;4.760;2023-12-14T11:53:48;9.80;85.60
20672;DHT22;10495;50.922;4.760;2023-12-14T11:56:17;9.80;87.10
20672;DHT22;10495;50.922;4.760;2023-12-14T11:58:44;9.80;87.20
20672;DHT22;10495;50.922;4.760;2023-12-14T12:01:19;9.80;87.40
20672;DHT22;10495;50.922;4.760;2023-12-14T12:03:47;10.00;87.60
20672;DHT22;10495;50.922;4.760;2023-12-14T12:08:48;10.00;87.70
20672;DHT22;10495;50.922;4.760;2023-12-14T12:11:18;9.90;87.90
20672;DHT22;10495;50.922;4.760;2023-12-14T12:13:43;10.10;87.20
20672;DHT22;10495;50.922;4.760;2023-12-14T12:16:09;10.10;87.40
20672;DHT22;10495;50.922;4.760;2023-12-14T12:18:34;10.10;87.10
20672;DHT22;10495;50.922;4.760;2023-12-14T12:21:00;10.10;87.60
20672;DHT22;10495;50.922;4.760;2023-12-14T12:23:29;10.20;88.00
20672;DHT22;10495;50.922;4.760;2023-12-14T12:25:55;10.20;87.10
20672;DHT22;10495;50.922;4.760;2023-12-14T12:28:21;10.30;87.10
20672;DHT22;10495;50.922;4.760;2023-12-14T12:30:47;10.20;86.60
20672;DHT22;10495;50.922;4.760;2023-12-14T12:33:13;10.10;87.10
20672;DHT22;10495;50.922;4.760;2023-12-14T12:35:38;10.20;87.30
20672;DHT22;10495;50.922;4.760;2023-12-14T12:38:04;10.40;86.70
20672;DHT22;10495;50.922;4.760;2023-12-14T12:40:29;10.40;86.30
20672;DHT22;10495;50.922;4.760;2023-12-14T12:42:56;10.40;85.70
20672;DHT22;10495;50.922;4.760;2023-12-14T12:45:22;10.30;85.30
20672;DHT22;10495;50.922;4.760;2023-12-14T12:47:51;10.10;86.10
20672;DHT22;10495;50.922;4.760;2023-12-14T12:50:16;10.30;86.20
20672;DHT22;10495;50.922;4.760;2023-12-14T12:52:42;10.10;86.60
20672;DHT22;10495;50.922;4.760;2023-12-14T12:55:08;10.10;87.30
20672;DHT22;10495;50.922;4.760;2023-12-14T12:57:35;10.10;87.60
20672;DHT22;10495;50.922;4.760;2023-12-14T13:00:01;10.30;86.10
20672;DHT22;10495;50.922;4.760;2023-12-14T13:02:29;10.40;85.20
20672;DHT22;10495;50.922;4.760;2023-12-14T13:04:54;10.30;86.00
20672;DHT22;10495;50.922;4.760;2023-12-14T13:07:20;10.20;85.40
20672;DHT22;10495;50.922;4.760;2023-12-14T13:09:46;10.20;85.80
20672;DHT22;10495;50.922;4.760;2023-12-14T13:12:11;10.10;86.30
20672;DHT22;10495;50.922;4.760;2023-12-14T13:14:37;10.00;86.80
20672;DHT22;10495;50.922;4.760;2023-12-14T13:17:03;10.00;87.30
20672;DHT22;10495;50.922;4.760;2023-12-14T13:19:28;10.10;87.30
20672;DHT22;10495;50.922;4.760;2023-12-14T13:21:54;10.10;87.80
20672;DHT22;10495;50.922;4.760;2023-12-14T13:24:23;10.00;88.70
20672;DHT22;10495;50.922;4.760;2023-12-14T13:26:48;10.10;88.00
20672;DHT22;10495;50.922;4.760;2023-12-14T13:29:14;10.10;88.10
20672;DHT22;10495;50.922;4.760;2023-12-14T13:31:39;10.10;88.10
20672;DHT22;10495;50.922;4.760;2023-12-14T13:34:05;10.00;88.50
20672;DHT22;10495;50.922;4.760;2023-12-14T13:36:31;10.10;88.50
20672;DHT22;10495;50.922;4.760;2023-12-14T13:38:57;10.00;88.50
20672;DHT22;10495;50.922;4.760;2023-12-14T13:41:23;9.90;89.10
20672;DHT22;10495;50.922;4.760;2023-12-14T13:43:49;9.80;90.00
20672;DHT22;10495;50.922;4.760;2023-12-14T13:46:17;9.70;90.10
20672;DHT22;10495;50.922;4.760;2023-12-14T13:48:43;9.70;90.40
20672;DHT22;10495;50.922;4.760;2023-12-14T13:51:08;9.80;90.30
20672;DHT22;10495;50.922;4.760;2023-12-14T13:53:34;9.90;90.20
20672;DHT22;10495;50.922;4.760;2023-12-14T13:55:59;10.00;90.10
20672;DHT22;10495;50.922;4.760;2023-12-14T13:58:25;10.00;90.10
20672;DHT22;10495;50.922;4.760;2023-12-14T14:00:51;9.80;90.20
20672;DHT22;10495;50.922;4.760;2023-12-14T14:03:16;9.80;90.40
20672;DHT22;10495;50.922;4.760;2023-12-14T14:05:42;9.80;90.50
20672;DHT22;10495;50.922;4.760;2023-12-14T14:08:09;9.80;90.50
20672;DHT22;10495;50.922;4.760;2023-12-14T14:10:35;9.80;90.60
20672;DHT22;10495;50.922;4.760;2023-12-14T14:13:01;9.70;90.80
20672;DHT22;10495;50.922;4.760;2023-12-14T14:15:26;9.70;90.80
20672;DHT22;10495;50.922;4.760;2023-12-14T14:17:53;9.80;90.60
20672;DHT22;10495;50.922;4.760;2023-12-14T14:20:20;9.80;90.70
20672;DHT22;10495;50.922;4.760;2023-12-14T14:22:45;9.80;90.80
20672;DHT22;10495;50.922;4.760;2023-12-14T14:25:11;9.80;90.80
20672;DHT22;10495;50.922;4.760;2023-12-14T14:27:37;9.80;90.90
20672;DHT22;10495;50.922;4.760;2023-12-14T14:30:03;9.90;90.80
20672;DHT22;10495;50.922;4.760;2023-12-14T14:32:29;9.80;90.80
20672;DHT22;10495;50.922;4.760;2023-12-14T14:34:57;9.80;90.80
20672;DHT22;10495;50.922;4.760;2023-12-14T14:37:24;9.90;90.80
20672;DHT22;10495;50.922;4.760;2023-12-14T14:39:50;9.90;90.70
20672;DHT22;10495;50.922;4.760;2023-12-14T14:42:16;9.90;90.60
20672;DHT22;10495;50.922;4.760;2023-12-14T14:44:41;10.00;90.60
20672;DHT22;10495;50.922;4.760;2023-12-14T14:47:07;9.90;90.60
20672;DHT22;10495;50.922;4.760;2023-12-14T14:49:33;9.80;90.70
20672;DHT22;10495;50.922;4.760;2023-12-14T14:51:58;9.80;90.80
20672;DHT22;10495;50.922;4.760;2023-12-14T14:54:24;9.80;90.90
20672;DHT22;10495;50.922;4.760;2023-12-14T14:56:50;9.70;91.00
20672;DHT22;10495;50.922;4.760;2023-12-14T14:59:16;9.80;91.00
20672;DHT22;10495;50.922;4.760;2023-12-14T15:01:42;9.80;90.90
20672;DHT22;10495;50.922;4.760;2023-12-14T15:04:08;9.70;91.00
20672;DHT22;10495;50.922;4.760;2023-12-14T15:06:33;9.80;91.10
20672;DHT22;10495;50.922;4.760;2023-12-14T15:09:00;9.80;91.10
20672;DHT22;10495;50.922;4.760;2023-12-14T15:11:25;9.90;91.20
20672;DHT22;10495;50.922;4.760;2023-12-14T15:13:51;9.80;91.10
20672;DHT22;10495;50.922;4.760;2023-12-14T15:16:17;9.80;91.10
20672;DHT22;10495;50.922;4.760;2023-12-14T15:18:44;9.80;91.10
20672;DHT22;10495;50.922;4.760;2023-12-14T15:21:12;9.80;91.20
20672;DHT22;10495;50.922;4.760;2023-12-14T15:23:38;9.80;91.10
20672;DHT22;10495;50.922;4.760;2023-12-14T15:26:05;9.80;91.10
20672;DHT22;10495;50.922;4.760;2023-12-14T15:28:33;9.80;91.20
20672;DHT22;10495;50.922;4.760;2023-12-14T15:30:59;9.80;91.20
20672;DHT22;10495;50.922;4.760;2023-12-14T15:33:24;9.80;91.20
20672;DHT22;10495;50.922;4.760;2023-12-14T15:35:51;9.80;91.20
20672;DHT22;10495;50.922;4.760;2023-12-14T15:38:17;9.80;91.20
20672;DHT22;10495;50.922;4.760;2023-12-14T15:40:42;9.80;91.20
20672;DHT22;10495;50.922;4.760;2023-12-14T15:43:08;9.70;91.40
20672;DHT22;10495;50.922;4.760;2023-12-14T15:45:34;9.70;91.10
20672;DHT22;10495;50.922;4.760;2023-12-14T15:48:02;9.70;91.10
20672;DHT22;10495;50.922;4.760;2023-12-14T15:50:29;9.60;91.10
20672;DHT22;10495;50.922;4.760;2023-12-14T15:52:55;9.60;91.10